Scott AFB, Illinois
Current Conditions -  °F | °C
As of 11:03 AM on Thursday 27 Nov 2014 (Local Time) from KBLV Reporting Station
Overcast Overcast  
Wind Chill: 26°   Ceiling: 3400
Heat Index: 32°   Visibility: 10mi
Dew Point: 28°   Wind: 6mph
Humidity: 87%   Direction: 330°NNW
Pressure: 30.48"   Gusts: NA
Location:  38.54°N, 89.85°W
Report Text: KBLV 271703Z AUTO 33005KT 10SM FEW018 SCT028 OVC034 00/M02 A3048 RMK AO2
Loading
Personal Weather Stations






























Interactive Weather Map New forecast layout! Learn more

10-Day Weather Forecast

Advertisements
Track Severe Weather on mobile